sensor_id;sensor_type;location;lat;lon;timestamp;temperature;humidity
11304;DHT22;5707;49.588;12.148;2023-05-10T00:02:24;10.90;99.90
11304;DHT22;5707;49.588;12.148;2023-05-10T00:04:49;10.80;99.90
11304;DHT22;5707;49.588;12.148;2023-05-10T00:07:15;10.70;99.90
11304;DHT22;5707;49.588;12.148;2023-05-10T00:09:43;10.60;99.90
11304;DHT22;5707;49.588;12.148;2023-05-10T00:12:08;10.70;99.90
11304;DHT22;5707;49.588;12.148;2023-05-10T00:14:34;10.60;99.90
11304;DHT22;5707;49.588;12.148;2023-05-10T00:17:00;10.60;99.90
11304;DHT22;5707;49.588;12.148;2023-05-10T00:19:25;10.60;99.90
11304;DHT22;5707;49.588;12.148;2023-05-10T00:21:51;10.60;99.90
11304;DHT22;5707;49.588;12.148;2023-05-10T00:24:16;10.60;99.90
11304;DHT22;5707;49.588;12.148;2023-05-10T00:26:42;10.60;99.90
11304;DHT22;5707;49.588;12.148;2023-05-10T00:29:07;10.60;99.90
11304;DHT22;5707;49.588;12.148;2023-05-10T00:31:33;10.50;99.90
11304;DHT22;5707;49.588;12.148;2023-05-10T00:33:59;10.50;99.90
11304;DHT22;5707;49.588;12.148;2023-05-10T00:36:24;10.50;99.90
11304;DHT22;5707;49.588;12.148;2023-05-10T00:38:50;10.40;99.90
11304;DHT22;5707;49.588;12.148;2023-05-10T00:41:15;10.40;99.90
11304;DHT22;5707;49.588;12.148;2023-05-10T00:43:41;10.40;99.90
11304;DHT22;5707;49.588;12.148;2023-05-10T00:46:07;10.40;99.90
11304;DHT22;5707;49.588;12.148;2023-05-10T00:48:33;10.40;99.90
11304;DHT22;5707;49.588;12.148;2023-05-10T00:51:00;10.40;99.90
11304;DHT22;5707;49.588;12.148;2023-05-10T00:53:26;10.30;99.90
11304;DHT22;5707;49.588;12.148;2023-05-10T00:55:52;10.30;99.90
11304;DHT22;5707;49.588;12.148;2023-05-10T00:58:18;10.40;99.90
11304;DHT22;5707;49.588;12.148;2023-05-10T01:00:46;10.40;99.90
11304;DHT22;5707;49.588;12.148;2023-05-10T01:03:12;10.40;99.90
11304;DHT22;5707;49.588;12.148;2023-05-10T01:05:38;10.40;99.90
11304;DHT22;5707;49.588;12.148;2023-05-10T01:08:04;10.40;99.90
11304;DHT22;5707;49.588;12.148;2023-05-10T01:10:30;10.40;99.90
11304;DHT22;5707;49.588;12.148;2023-05-10T01:12:56;10.40;99.90
11304;DHT22;5707;49.588;12.148;2023-05-10T01:15:22;10.40;99.90
11304;DHT22;5707;49.588;12.148;2023-05-10T01:17:48;10.30;99.90
11304;DHT22;5707;49.588;12.148;2023-05-10T01:20:15;10.30;99.90
11304;DHT22;5707;49.588;12.148;2023-05-10T01:34:02;10.50;99.90
11304;DHT22;5707;49.588;12.148;2023-05-10T01:36:48;10.50;99.90
11304;DHT22;5707;49.588;12.148;2023-05-10T01:39:23;10.50;99.90
11304;DHT22;5707;49.588;12.148;2023-05-10T01:44:39;10.50;99.90
11304;DHT22;5707;49.588;12.148;2023-05-10T01:47:12;10.60;99.90
11304;DHT22;5707;49.588;12.148;2023-05-10T01:49:50;10.60;99.90
11304;DHT22;5707;49.588;12.148;2023-05-10T01:52:19;10.60;99.90
11304;DHT22;5707;49.588;12.148;2023-05-10T01:54:56;10.70;99.90
11304;DHT22;5707;49.588;12.148;2023-05-10T01:57:27;10.80;99.90
11304;DHT22;5707;49.588;12.148;2023-05-10T01:59:57;10.80;99.90
11304;DHT22;5707;49.588;12.148;2023-05-10T02:02:26;10.80;99.90
11304;DHT22;5707;49.588;12.148;2023-05-10T02:04:53;10.80;99.90
11304;DHT22;5707;49.588;12.148;2023-05-10T02:07:20;10.80;99.90
11304;DHT22;5707;49.588;12.148;2023-05-10T02:09:47;10.80;99.90
11304;DHT22;5707;49.588;12.148;2023-05-10T02:12:14;10.80;99.90
11304;DHT22;5707;49.588;12.148;2023-05-10T02:14:41;10.80;99.90
11304;DHT22;5707;49.588;12.148;2023-05-10T02:17:08;10.80;99.90
11304;DHT22;5707;49.588;12.148;2023-05-10T02:19:37;10.70;99.90
11304;DHT22;5707;49.588;12.148;2023-05-10T02:22:04;10.70;99.90
11304;DHT22;5707;49.588;12.148;2023-05-10T02:24:30;10.70;99.90
11304;DHT22;5707;49.588;12.148;2023-05-10T02:26:57;10.70;99.90
11304;DHT22;5707;49.588;12.148;2023-05-10T02:29:24;10.60;99.90
11304;DHT22;5707;49.588;12.148;2023-05-10T02:31:52;10.60;99.90
11304;DHT22;5707;49.588;12.148;2023-05-10T02:34:19;10.60;99.90
11304;DHT22;5707;49.588;12.148;2023-05-10T02:36:47;10.60;99.90
11304;DHT22;5707;49.588;12.148;2023-05-10T02:39:13;10.60;99.90
11304;DHT22;5707;49.588;12.148;2023-05-10T02:41:42;10.60;99.90
11304;DHT22;5707;49.588;12.148;2023-05-10T02:44:09;10.60;99.90
11304;DHT22;5707;49.588;12.148;2023-05-10T02:46:36;10.60;99.90
11304;DHT22;5707;49.588;12.148;2023-05-10T02:49:03;10.60;99.90
11304;DHT22;5707;49.588;12.148;2023-05-10T02:51:31;10.60;99.90
11304;DHT22;5707;49.588;12.148;2023-05-10T02:53:57;10.60;99.90
11304;DHT22;5707;49.588;12.148;2023-05-10T02:56:33;10.60;99.90
11304;DHT22;5707;49.588;12.148;2023-05-10T02:58:59;10.60;99.90
11304;DHT22;5707;49.588;12.148;2023-05-10T03:01:25;10.60;99.90
11304;DHT22;5707;49.588;12.148;2023-05-10T03:03:50;10.50;99.90
11304;DHT22;5707;49.588;12.148;2023-05-10T03:06:16;10.50;99.90
11304;DHT22;5707;49.588;12.148;2023-05-10T03:08:42;10.50;99.90
11304;DHT22;5707;49.588;12.148;2023-05-10T03:16:47;10.30;99.90
11304;DHT22;5707;49.588;12.148;2023-05-10T03:19:23;10.30;99.90
11304;DHT22;5707;49.588;12.148;2023-05-10T03:21:52;10.30;99.90
11304;DHT22;5707;49.588;12.148;2023-05-10T03:24:21;10.30;99.90
11304;DHT22;5707;49.588;12.148;2023-05-10T03:26:49;10.40;99.90
11304;DHT22;5707;49.588;12.148;2023-05-10T03:29:15;10.40;99.90
11304;DHT22;5707;49.588;12.148;2023-05-10T03:31:41;10.40;99.90
11304;DHT22;5707;49.588;12.148;2023-05-10T03:34:07;10.30;99.90
11304;DHT22;5707;49.588;12.148;2023-05-10T03:36:33;10.30;99.90
11304;DHT22;5707;49.588;12.148;2023-05-10T03:38:58;10.30;99.90
11304;DHT22;5707;49.588;12.148;2023-05-10T03:41:24;10.30;99.90
11304;DHT22;5707;49.588;12.148;2023-05-10T03:43:50;10.20;99.90
11304;DHT22;5707;49.588;12.148;2023-05-10T03:46:16;10.20;99.90
11304;DHT22;5707;49.588;12.148;2023-05-10T03:48:42;10.20;99.90
11304;DHT22;5707;49.588;12.148;2023-05-10T03:51:07;10.20;99.90
11304;DHT22;5707;49.588;12.148;2023-05-10T03:53:33;10.30;99.90
11304;DHT22;5707;49.588;12.148;2023-05-10T03:55:58;10.30;99.90
11304;DHT22;5707;49.588;12.148;2023-05-10T03:58:24;10.30;99.90
11304;DHT22;5707;49.588;12.148;2023-05-10T04:00:51;10.40;99.90
11304;DHT22;5707;49.588;12.148;2023-05-10T04:03:16;10.40;99.90
11304;DHT22;5707;49.588;12.148;2023-05-10T04:05:43;10.40;99.90
11304;DHT22;5707;49.588;12.148;2023-05-10T04:08:08;10.40;99.90
11304;DHT22;5707;49.588;12.148;2023-05-10T04:10:34;10.40;99.90
11304;DHT22;5707;49.588;12.148;2023-05-10T04:12:59;10.40;99.90
11304;DHT22;5707;49.588;12.148;2023-05-10T04:15:25;10.40;99.90
11304;DHT22;5707;49.588;12.148;2023-05-10T04:17:50;10.40;99.90
11304;DHT22;5707;49.588;12.148;2023-05-10T04:20:16;10.40;99.90
11304;DHT22;5707;49.588;12.148;2023-05-10T04:22:42;10.40;99.90
11304;DHT22;5707;49.588;12.148;2023-05-10T04:25:08;10.40;99.90
11304;DHT22;5707;49.588;12.148;2023-05-10T04:27:33;10.40;99.90
11304;DHT22;5707;49.588;12.148;2023-05-10T04:29:59;10.50;99.90
11304;DHT22;5707;49.588;12.148;2023-05-10T04:32:25;10.50;99.90
11304;DHT22;5707;49.588;12.148;2023-05-10T04:34:50;10.50;99.90
11304;DHT22;5707;49.588;12.148;2023-05-10T04:37:17;10.50;99.90
11304;DHT22;5707;49.588;12.148;2023-05-10T04:39:43;10.50;99.90
11304;DHT22;5707;49.588;12.148;2023-05-10T04:42:09;10.50;99.90
11304;DHT22;5707;49.588;12.148;2023-05-10T04:44:34;10.50;99.90
11304;DHT22;5707;49.588;12.148;2023-05-10T04:47:00;10.50;99.90
11304;DHT22;5707;49.588;12.148;2023-05-10T04:49:27;10.50;99.90
11304;DHT22;5707;49.588;12.148;2023-05-10T04:51:53;10.50;99.90
11304;DHT22;5707;49.588;12.148;2023-05-10T04:54:18;10.50;99.90
11304;DHT22;5707;49.588;12.148;2023-05-10T04:56:44;10.50;99.90
11304;DHT22;5707;49.588;12.148;2023-05-10T04:59:09;10.50;99.90
11304;DHT22;5707;49.588;12.148;2023-05-10T05:01:35;10.40;99.90
11304;DHT22;5707;49.588;12.148;2023-05-10T05:04:01;10.30;99.90
11304;DHT22;5707;49.588;12.148;2023-05-10T05:06:27;10.30;99.90
11304;DHT22;5707;49.588;12.148;2023-05-10T05:08:52;10.20;99.90
11304;DHT22;5707;49.588;12.148;2023-05-10T05:11:18;10.20;99.90
11304;DHT22;5707;49.588;12.148;2023-05-10T05:13:44;10.20;99.90
11304;DHT22;5707;49.588;12.148;2023-05-10T05:16:09;10.20;99.90
11304;DHT22;5707;49.588;12.148;2023-05-10T05:18:36;10.20;99.90
11304;DHT22;5707;49.588;12.148;2023-05-10T05:21:01;10.10;99.90
11304;DHT22;5707;49.588;12.148;2023-05-10T05:23:27;10.10;99.90
11304;DHT22;5707;49.588;12.148;2023-05-10T05:25:53;10.20;99.90
11304;DHT22;5707;49.588;12.148;2023-05-10T05:28:21;10.20;99.90
11304;DHT22;5707;49.588;12.148;2023-05-10T05:30:47;10.30;99.90
11304;DHT22;5707;49.588;12.148;2023-05-10T05:33:15;10.40;99.90
11304;DHT22;5707;49.588;12.148;2023-05-10T05:35:41;10.50;99.90
11304;DHT22;5707;49.588;12.148;2023-05-10T05:38:09;10.50;99.90
11304;DHT22;5707;49.588;12.148;2023-05-10T05:40:35;10.50;99.90
11304;DHT22;5707;49.588;12.148;2023-05-10T05:43:01;10.50;99.90
11304;DHT22;5707;49.588;12.148;2023-05-10T05:45:26;10.50;99.90
11304;DHT22;5707;49.588;12.148;2023-05-10T05:47:52;10.50;99.90
11304;DHT22;5707;49.588;12.148;2023-05-10T05:50:17;10.50;99.90
11304;DHT22;5707;49.588;12.148;2023-05-10T05:52:43;10.50;99.90
11304;DHT22;5707;49.588;12.148;2023-05-10T05:55:08;10.60;99.90
11304;DHT22;5707;49.588;12.148;2023-05-10T05:57:34;10.70;99.90
11304;DHT22;5707;49.588;12.148;2023-05-10T05:59:59;10.70;99.90
11304;DHT22;5707;49.588;12.148;2023-05-10T06:02:25;10.80;99.90
11304;DHT22;5707;49.588;12.148;2023-05-10T06:04:50;10.80;99.90
11304;DHT22;5707;49.588;12.148;2023-05-10T06:07:16;10.80;99.90
11304;DHT22;5707;49.588;12.148;2023-05-10T06:09:41;10.80;99.90
11304;DHT22;5707;49.588;12.148;2023-05-10T06:12:07;10.80;99.90
11304;DHT22;5707;49.588;12.148;2023-05-10T06:14:32;10.80;99.90
11304;DHT22;5707;49.588;12.148;2023-05-10T06:16:58;10.80;99.90
11304;DHT22;5707;49.588;12.148;2023-05-10T06:19:25;10.80;99.90
11304;DHT22;5707;49.588;12.148;2023-05-10T06:21:51;10.80;99.90
11304;DHT22;5707;49.588;12.148;2023-05-10T06:24:17;10.80;99.90
11304;DHT22;5707;49.588;12.148;2023-05-10T06:26:42;10.80;99.90
11304;DHT22;5707;49.588;12.148;2023-05-10T06:29:08;10.80;99.90
11304;DHT22;5707;49.588;12.148;2023-05-10T06:31:33;10.80;99.90
11304;DHT22;5707;49.588;12.148;2023-05-10T06:33:59;10.80;99.90
11304;DHT22;5707;49.588;12.148;2023-05-10T06:36:24;10.90;99.90
11304;DHT22;5707;49.588;12.148;2023-05-10T06:38:51;11.10;99.90
11304;DHT22;5707;49.588;12.148;2023-05-10T06:41:17;11.30;99.90
11304;DHT22;5707;49.588;12.148;2023-05-10T06:43:42;11.50;99.90
11304;DHT22;5707;49.588;12.148;2023-05-10T06:46:08;11.60;99.90
11304;DHT22;5707;49.588;12.148;2023-05-10T06:48:34;11.70;99.90
11304;DHT22;5707;49.588;12.148;2023-05-10T06:51:00;11.80;99.90
11304;DHT22;5707;49.588;12.148;2023-05-10T06:53:25;11.90;99.90
11304;DHT22;5707;49.588;12.148;2023-05-10T06:55:51;11.90;99.90
11304;DHT22;5707;49.588;12.148;2023-05-10T06:58:16;12.00;99.90
11304;DHT22;5707;49.588;12.148;2023-05-10T07:00:42;12.10;99.90
11304;DHT22;5707;49.588;12.148;2023-05-10T07:03:09;12.30;99.90
11304;DHT22;5707;49.588;12.148;2023-05-10T07:05:35;12.40;99.90
11304;DHT22;5707;49.588;12.148;2023-05-10T07:08:01;12.40;99.90
11304;DHT22;5707;49.588;12.148;2023-05-10T07:10:27;12.40;99.90
11304;DHT22;5707;49.588;12.148;2023-05-10T07:12:52;12.40;99.90
11304;DHT22;5707;49.588;12.148;2023-05-10T07:15:18;12.50;99.90
11304;DHT22;5707;49.588;12.148;2023-05-10T07:17:43;12.60;99.90
11304;DHT22;5707;49.588;12.148;2023-05-10T07:20:09;12.70;99.90
11304;DHT22;5707;49.588;12.148;2023-05-10T07:22:35;12.90;99.90
11304;DHT22;5707;49.588;12.148;2023-05-10T07:25:00;13.00;99.90
11304;DHT22;5707;49.588;12.148;2023-05-10T07:27:26;13.20;99.90
11304;DHT22;5707;49.588;12.148;2023-05-10T07:29:52;13.50;99.90
11304;DHT22;5707;49.588;12.148;2023-05-10T07:32:17;13.80;99.90
11304;DHT22;5707;49.588;12.148;2023-05-10T07:34:43;14.10;99.90
11304;DHT22;5707;49.588;12.148;2023-05-10T07:37:08;14.30;99.90
11304;DHT22;5707;49.588;12.148;2023-05-10T07:39:34;14.30;99.90
11304;DHT22;5707;49.588;12.148;2023-05-10T07:41:59;14.10;99.90
11304;DHT22;5707;49.588;12.148;2023-05-10T07:44:25;13.80;99.90
11304;DHT22;5707;49.588;12.148;2023-05-10T07:46:51;13.70;99.90
11304;DHT22;5707;49.588;12.148;2023-05-10T07:49:16;13.50;99.90
11304;DHT22;5707;49.588;12.148;2023-05-10T07:51:42;13.50;99.90
11304;DHT22;5707;49.588;12.148;2023-05-10T07:54:07;13.80;99.90
11304;DHT22;5707;49.588;12.148;2023-05-10T07:56:33;14.20;99.90
11304;DHT22;5707;49.588;12.148;2023-05-10T07:59:00;14.50;99.90
11304;DHT22;5707;49.588;12.148;2023-05-10T08:01:26;15.10;99.90
11304;DHT22;5707;49.588;12.148;2023-05-10T08:03:55;15.50;99.90
11304;DHT22;5707;49.588;12.148;2023-05-10T08:06:20;15.70;99.90
11304;DHT22;5707;49.588;12.148;2023-05-10T08:08:47;15.60;99.90
11304;DHT22;5707;49.588;12.148;2023-05-10T08:11:18;15.80;99.90
11304;DHT22;5707;49.588;12.148;2023-05-10T08:13:44;16.20;99.90
11304;DHT22;5707;49.588;12.148;2023-05-10T08:16:10;16.60;99.90
11304;DHT22;5707;49.588;12.148;2023-05-10T08:18:37;17.10;99.90
11304;DHT22;5707;49.588;12.148;2023-05-10T08:21:03;17.30;99.90
11304;DHT22;5707;49.588;12.148;2023-05-10T08:23:28;17.60;99.90
11304;DHT22;5707;49.588;12.148;2023-05-10T08:25:54;17.70;99.90
11304;DHT22;5707;49.588;12.148;2023-05-10T08:28:19;17.70;99.90
11304;DHT22;5707;49.588;12.148;2023-05-10T08:30:45;17.90;99.90
11304;DHT22;5707;49.588;12.148;2023-05-10T08:33:11;17.90;99.90
11304;DHT22;5707;49.588;12.148;2023-05-10T08:35:37;17.90;99.90
11304;DHT22;5707;49.588;12.148;2023-05-10T08:38:03;17.80;99.90
11304;DHT22;5707;49.588;12.148;2023-05-10T08:40:28;17.60;99.90
11304;DHT22;5707;49.588;12.148;2023-05-10T08:43:08;17.80;99.90
11304;DHT22;5707;49.588;12.148;2023-05-10T08:45:38;18.50;99.90
11304;DHT22;5707;49.588;12.148;2023-05-10T08:48:05;19.00;99.90
11304;DHT22;5707;49.588;12.148;2023-05-10T08:50:31;19.10;99.90
11304;DHT22;5707;49.588;12.148;2023-05-10T08:53:00;19.10;99.90
11304;DHT22;5707;49.588;12.148;2023-05-10T08:55:27;19.10;99.90
11304;DHT22;5707;49.588;12.148;2023-05-10T08:57:53;19.20;99.90
11304;DHT22;5707;49.588;12.148;2023-05-10T09:00:19;19.40;99.90
11304;DHT22;5707;49.588;12.148;2023-05-10T09:02:45;19.30;99.90
11304;DHT22;5707;49.588;12.148;2023-05-10T09:05:13;19.20;99.90
11304;DHT22;5707;49.588;12.148;2023-05-10T09:07:41;18.90;99.90
11304;DHT22;5707;49.588;12.148;2023-05-10T09:10:08;18.50;99.90
11304;DHT22;5707;49.588;12.148;2023-05-10T09:12:35;18.10;99.90
11304;DHT22;5707;49.588;12.148;2023-05-10T09:15:02;17.60;99.90
11304;DHT22;5707;49.588;12.148;2023-05-10T09:17:29;17.10;99.90
11304;DHT22;5707;49.588;12.148;2023-05-10T09:20:02;16.60;99.90
11304;DHT22;5707;49.588;12.148;2023-05-10T09:22:30;16.10;99.90
11304;DHT22;5707;49.588;12.148;2023-05-10T09:25:11;15.90;99.90
11304;DHT22;5707;49.588;12.148;2023-05-10T09:27:39;16.00;99.90
11304;DHT22;5707;49.588;12.148;2023-05-10T09:30:05;16.40;99.90
11304;DHT22;5707;49.588;12.148;2023-05-10T09:32:39;16.60;99.90
11304;DHT22;5707;49.588;12.148;2023-05-10T09:35:15;16.90;99.90
11304;DHT22;5707;49.588;12.148;2023-05-10T09:37:47;17.10;99.90
11304;DHT22;5707;49.588;12.148;2023-05-10T09:40:20;17.20;99.90
11304;DHT22;5707;49.588;12.148;2023-05-10T09:43:08;17.10;99.90
11304;DHT22;5707;49.588;12.148;2023-05-10T09:45:36;17.00;99.90
11304;DHT22;5707;49.588;12.148;2023-05-10T09:48:03;16.90;99.90
11304;DHT22;5707;49.588;12.148;2023-05-10T09:50:31;16.80;99.90
11304;DHT22;5707;49.588;12.148;2023-05-10T09:52:59;16.90;99.90
11304;DHT22;5707;49.588;12.148;2023-05-10T09:55:38;16.90;99.90
11304;DHT22;5707;49.588;12.148;2023-05-10T09:58:04;17.10;99.90
11304;DHT22;5707;49.588;12.148;2023-05-10T10:00:50;17.30;99.90
11304;DHT22;5707;49.588;12.148;2023-05-10T10:03:20;17.40;99.90
11304;DHT22;5707;49.588;12.148;2023-05-10T10:05:47;17.40;99.90
11304;DHT22;5707;49.588;12.148;2023-05-10T10:08:14;17.50;99.90
11304;DHT22;5707;49.588;12.148;2023-05-10T10:10:40;17.50;99.90
11304;DHT22;5707;49.588;12.148;2023-05-10T10:13:06;17.70;99.90
11304;DHT22;5707;49.588;12.148;2023-05-10T10:15:33;17.90;99.90
11304;DHT22;5707;49.588;12.148;2023-05-10T10:18:00;17.90;99.90
11304;DHT22;5707;49.588;12.148;2023-05-10T10:20:28;18.10;99.90
11304;DHT22;5707;49.588;12.148;2023-05-10T10:22:54;18.00;99.90
11304;DHT22;5707;49.588;12.148;2023-05-10T10:25:20;18.20;99.90
11304;DHT22;5707;49.588;12.148;2023-05-10T10:28:06;18.40;99.90
11304;DHT22;5707;49.588;12.148;2023-05-10T10:30:42;19.00;99.90
11304;DHT22;5707;49.588;12.148;2023-05-10T10:33:24;19.80;99.90
11304;DHT22;5707;49.588;12.148;2023-05-10T10:35:53;20.30;99.90
11304;DHT22;5707;49.588;12.148;2023-05-10T10:38:19;20.70;99.90
11304;DHT22;5707;49.588;12.148;2023-05-10T10:40:45;21.20;99.90
11304;DHT22;5707;49.588;12.148;2023-05-10T10:43:40;21.40;99.90
11304;DHT22;5707;49.588;12.148;2023-05-10T10:46:16;21.60;99.90
11304;DHT22;5707;49.588;12.148;2023-05-10T10:48:50;22.20;99.90
11304;DHT22;5707;49.588;12.148;2023-05-10T10:51:36;22.90;99.90
11304;DHT22;5707;49.588;12.148;2023-05-10T10:54:09;22.80;99.90
11304;DHT22;5707;49.588;12.148;2023-05-10T10:56:35;22.80;99.90
11304;DHT22;5707;49.588;12.148;2023-05-10T10:59:01;22.60;99.90
11304;DHT22;5707;49.588;12.148;2023-05-10T11:01:35;21.90;99.90
11304;DHT22;5707;49.588;12.148;2023-05-10T11:06:34;20.20;99.90
11304;DHT22;5707;49.588;12.148;2023-05-10T11:09:06;19.60;99.90
11304;DHT22;5707;49.588;12.148;2023-05-10T11:11:32;19.10;99.90
11304;DHT22;5707;49.588;12.148;2023-05-10T11:14:04;18.80;99.90
11304;DHT22;5707;49.588;12.148;2023-05-10T11:16:41;18.40;99.90
11304;DHT22;5707;49.588;12.148;2023-05-10T11:19:12;18.20;99.90
11304;DHT22;5707;49.588;12.148;2023-05-10T11:22:12;18.30;99.90
11304;DHT22;5707;49.588;12.148;2023-05-10T11:24:38;18.60;99.90
11304;DHT22;5707;49.588;12.148;2023-05-10T11:27:04;19.10;99.90
11304;DHT22;5707;49.588;12.148;2023-05-10T11:29:29;19.30;99.90
11304;DHT22;5707;49.588;12.148;2023-05-10T11:31:58;19.40;99.90
11304;DHT22;5707;49.588;12.148;2023-05-10T11:34:30;19.80;99.90
11304;DHT22;5707;49.588;12.148;2023-05-10T11:36:59;19.60;99.90
11304;DHT22;5707;49.588;12.148;2023-05-10T11:39:30;19.30;99.90
11304;DHT22;5707;49.588;12.148;2023-05-10T11:41:56;19.20;99.90
11304;DHT22;5707;49.588;12.148;2023-05-10T11:44:22;19.00;99.90
11304;DHT22;5707;49.588;12.148;2023-05-10T11:46:49;18.70;99.90
11304;DHT22;5707;49.588;12.148;2023-05-10T11:49:14;18.40;99.90
11304;DHT22;5707;49.588;12.148;2023-05-10T11:51:40;18.60;99.90
11304;DHT22;5707;49.588;12.148;2023-05-10T11:54:08;19.10;99.90
11304;DHT22;5707;49.588;12.148;2023-05-10T11:56:34;19.90;99.90
11304;DHT22;5707;49.588;12.148;2023-05-10T11:59:01;20.70;99.90
11304;DHT22;5707;49.588;12.148;2023-05-10T12:01:28;21.60;99.90
11304;DHT22;5707;49.588;12.148;2023-05-10T12:03:56;22.20;99.90
11304;DHT22;5707;49.588;12.148;2023-05-10T12:06:27;22.90;99.90
11304;DHT22;5707;49.588;12.148;2023-05-10T12:08:53;23.50;99.90
11304;DHT22;5707;49.588;12.148;2023-05-10T12:11:19;24.00;99.90
11304;DHT22;5707;49.588;12.148;2023-05-10T12:13:47;24.40;99.90
11304;DHT22;5707;49.588;12.148;2023-05-10T12:18:40;23.50;99.90
11304;DHT22;5707;49.588;12.148;2023-05-10T12:21:07;23.30;99.90
11304;DHT22;5707;49.588;12.148;2023-05-10T12:23:32;23.20;99.90
11304;DHT22;5707;49.588;12.148;2023-05-10T12:26:04;22.80;99.90
11304;DHT22;5707;49.588;12.148;2023-05-10T12:28:31;22.50;99.90
11304;DHT22;5707;49.588;12.148;2023-05-10T12:30:58;22.20;99.90
11304;DHT22;5707;49.588;12.148;2023-05-10T12:33:24;21.60;99.90
11304;DHT22;5707;49.588;12.148;2023-05-10T12:35:54;21.30;99.90
11304;DHT22;5707;49.588;12.148;2023-05-10T12:41:09;20.50;99.90
11304;DHT22;5707;49.588;12.148;2023-05-10T12:43:36;19.90;99.90
11304;DHT22;5707;49.588;12.148;2023-05-10T12:46:12;19.70;99.90
11304;DHT22;5707;49.588;12.148;2023-05-10T12:48:39;19.60;99.90
11304;DHT22;5707;49.588;12.148;2023-05-10T12:51:05;19.50;99.90
11304;DHT22;5707;49.588;12.148;2023-05-10T12:53:34;19.20;99.90
11304;DHT22;5707;49.588;12.148;2023-05-10T12:56:00;19.00;99.90
11304;DHT22;5707;49.588;12.148;2023-05-10T12:58:25;18.80;99.90
11304;DHT22;5707;49.588;12.148;2023-05-10T13:00:51;18.70;99.90
11304;DHT22;5707;49.588;12.148;2023-05-10T13:03:17;18.60;99.90
11304;DHT22;5707;49.588;12.148;2023-05-10T13:05:43;18.60;99.90
11304;DHT22;5707;49.588;12.148;2023-05-10T13:08:08;18.90;99.90
11304;DHT22;5707;49.588;12.148;2023-05-10T13:10:34;19.20;99.90
11304;DHT22;5707;49.588;12.148;2023-05-10T13:12:59;19.40;99.90
11304;DHT22;5707;49.588;12.148;2023-05-10T13:15:25;19.40;99.90
11304;DHT22;5707;49.588;12.148;2023-05-10T13:17:51;19.40;99.90
11304;DHT22;5707;49.588;12.148;2023-05-10T13:20:17;19.50;99.90
11304;DHT22;5707;49.588;12.148;2023-05-10T13:22:43;19.50;99.90
11304;DHT22;5707;49.588;12.148;2023-05-10T13:25:09;19.30;99.90
11304;DHT22;5707;49.588;12.148;2023-05-10T13:27:35;19.30;99.90
11304;DHT22;5707;49.588;12.148;2023-05-10T13:30:02;19.30;99.90
11304;DHT22;5707;49.588;12.148;2023-05-10T13:32:28;19.30;99.90
11304;DHT22;5707;49.588;12.148;2023-05-10T13:34:55;19.10;99.90
11304;DHT22;5707;49.588;12.148;2023-05-10T13:37:20;19.00;99.90
11304;DHT22;5707;49.588;12.148;2023-05-10T13:39:46;19.00;99.90
11304;DHT22;5707;49.588;12.148;2023-05-10T13:42:12;18.90;99.90
11304;DHT22;5707;49.588;12.148;2023-05-10T13:44:37;19.00;99.90
11304;DHT22;5707;49.588;12.148;2023-05-10T13:47:04;19.00;99.90
11304;DHT22;5707;49.588;12.148;2023-05-10T13:49:30;19.20;99.90
11304;DHT22;5707;49.588;12.148;2023-05-10T13:51:55;19.40;99.90
11304;DHT22;5707;49.588;12.148;2023-05-10T13:54:21;19.60;99.90
11304;DHT22;5707;49.588;12.148;2023-05-10T13:56:47;19.70;99.90
11304;DHT22;5707;49.588;12.148;2023-05-10T13:59:14;19.90;99.90
11304;DHT22;5707;49.588;12.148;2023-05-10T14:01:41;19.90;99.90
11304;DHT22;5707;49.588;12.148;2023-05-10T14:04:06;20.00;99.90
11304;DHT22;5707;49.588;12.148;2023-05-10T14:06:35;20.10;99.90
11304;DHT22;5707;49.588;12.148;2023-05-10T14:09:02;20.30;99.90
11304;DHT22;5707;49.588;12.148;2023-05-10T14:11:27;20.70;99.90
11304;DHT22;5707;49.588;12.148;2023-05-10T14:13:53;21.00;99.90
11304;DHT22;5707;49.588;12.148;2023-05-10T14:16:19;21.20;99.90
11304;DHT22;5707;49.588;12.148;2023-05-10T14:18:45;21.40;99.90
11304;DHT22;5707;49.588;12.148;2023-05-10T14:21:11;21.70;99.90
11304;DHT22;5707;49.588;12.148;2023-05-10T14:23:37;21.80;99.90
11304;DHT22;5707;49.588;12.148;2023-05-10T14:26:02;21.70;99.90
11304;DHT22;5707;49.588;12.148;2023-05-10T14:28:28;21.50;99.90
11304;DHT22;5707;49.588;12.148;2023-05-10T14:30:54;21.40;99.90
11304;DHT22;5707;49.588;12.148;2023-05-10T14:33:19;21.40;99.90
11304;DHT22;5707;49.588;12.148;2023-05-10T14:35:46;21.10;99.90
11304;DHT22;5707;49.588;12.148;2023-05-10T14:38:12;20.80;99.90
11304;DHT22;5707;49.588;12.148;2023-05-10T14:40:38;20.40;99.90
11304;DHT22;5707;49.588;12.148;2023-05-10T14:43:03;20.10;99.90
11304;DHT22;5707;49.588;12.148;2023-05-10T14:45:29;20.00;99.90
11304;DHT22;5707;49.588;12.148;2023-05-10T14:47:54;20.00;99.90
11304;DHT22;5707;49.588;12.148;2023-05-10T14:50:20;20.00;99.90
11304;DHT22;5707;49.588;12.148;2023-05-10T14:52:46;20.00;99.90
11304;DHT22;5707;49.588;12.148;2023-05-10T14:55:11;19.90;99.90
11304;DHT22;5707;49.588;12.148;2023-05-10T14:57:37;19.70;99.90
11304;DHT22;5707;49.588;12.148;2023-05-10T15:00:03;19.70;99.90
11304;DHT22;5707;49.588;12.148;2023-05-10T15:02:30;19.70;99.90
11304;DHT22;5707;49.588;12.148;2023-05-10T15:04:56;19.60;99.90
11304;DHT22;5707;49.588;12.148;2023-05-10T15:07:22;19.60;99.90
11304;DHT22;5707;49.588;12.148;2023-05-10T15:09:48;19.20;99.90
11304;DHT22;5707;49.588;12.148;2023-05-10T15:12:14;19.10;99.90
11304;DHT22;5707;49.588;12.148;2023-05-10T15:14:39;18.90;99.90
11304;DHT22;5707;49.588;12.148;2023-05-10T15:17:06;18.80;99.90
11304;DHT22;5707;49.588;12.148;2023-05-10T15:19:32;18.70;99.90
11304;DHT22;5707;49.588;12.148;2023-05-10T15:21:58;18.60;99.90
11304;DHT22;5707;49.588;12.148;2023-05-10T15:24:24;18.60;99.90
11304;DHT22;5707;49.588;12.148;2023-05-10T15:26:50;18.60;99.90
11304;DHT22;5707;49.588;12.148;2023-05-10T15:29:15;18.70;99.90
11304;DHT22;5707;49.588;12.148;2023-05-10T15:31:46;18.70;99.90
11304;DHT22;5707;49.588;12.148;2023-05-10T15:34:11;18.70;99.90
11304;DHT22;5707;49.588;12.148;2023-05-10T15:36:38;18.70;99.90
11304;DHT22;5707;49.588;12.148;2023-05-10T15:39:03;18.50;99.90
11304;DHT22;5707;49.588;12.148;2023-05-10T15:41:29;18.50;99.90
11304;DHT22;5707;49.588;12.148;2023-05-10T15:43:55;18.40;99.90
11304;DHT22;5707;49.588;12.148;2023-05-10T15:46:21;18.20;99.90
11304;DHT22;5707;49.588;12.148;2023-05-10T15:48:46;18.00;99.90
11304;DHT22;5707;49.588;12.148;2023-05-10T15:51:12;17.80;99.90
11304;DHT22;5707;49.588;12.148;2023-05-10T15:53:38;17.60;99.90
11304;DHT22;5707;49.588;12.148;2023-05-10T15:56:04;17.50;99.90
11304;DHT22;5707;49.588;12.148;2023-05-10T15:58:30;17.40;99.90